sensor_id;sensor_type;location;lat;lon;timestamp;pressure;altitude;pressure_sealevel;temperature;humidity
22755;BME280;11544;42.020;23.094;2023-06-14T00:02:18;96794.03;;;20.85;100.00
22755;BME280;11544;42.020;23.094;2023-06-14T00:04:44;96806.56;;;21.04;100.00
22755;BME280;11544;42.020;23.094;2023-06-14T00:07:12;96803.47;;;20.99;100.00
22755;BME280;11544;42.020;23.094;2023-06-14T00:09:40;96804.06;;;21.03;100.00
22755;BME280;11544;42.020;23.094;2023-06-14T00:12:07;96799.41;;;20.74;100.00
22755;BME280;11544;42.020;23.094;2023-06-14T00:14:35;96795.66;;;21.19;100.00
22755;BME280;11544;42.020;23.094;2023-06-14T00:17:02;96794.75;;;21.29;100.00
22755;BME280;11544;42.020;23.094;2023-06-14T00:19:30;96782.53;;;20.75;100.00
22755;BME280;11544;42.020;23.094;2023-06-14T00:21:59;96788.47;;;21.09;100.00
22755;BME280;11544;42.020;23.094;2023-06-14T00:24:26;96775.41;;;20.76;100.00
22755;BME280;11544;42.020;23.094;2023-06-14T00:26:53;96783.09;;;20.58;100.00
22755;BME280;11544;42.020;23.094;2023-06-14T00:29:21;96784.59;;;20.92;100.00
22755;BME280;11544;42.020;23.094;2023-06-14T00:31:48;96779.50;;;20.80;100.00
22755;BME280;11544;42.020;23.094;2023-06-14T00:34:15;96779.81;;;20.65;100.00
22755;BME280;11544;42.020;23.094;2023-06-14T00:36:42;96773.69;;;20.86;100.00
22755;BME280;11544;42.020;23.094;2023-06-14T00:39:09;96764.00;;;20.96;100.00
22755;BME280;11544;42.020;23.094;2023-06-14T00:41:36;96766.75;;;20.73;100.00
22755;BME280;11544;42.020;23.094;2023-06-14T00:44:04;96770.56;;;21.02;100.00
22755;BME280;11544;42.020;23.094;2023-06-14T00:46:31;96766.53;;;20.77;100.00
22755;BME280;11544;42.020;23.094;2023-06-14T00:48:59;96765.03;;;20.51;100.00
22755;BME280;11544;42.020;23.094;2023-06-14T00:51:27;96760.97;;;20.80;100.00
22755;BME280;11544;42.020;23.094;2023-06-14T00:53:54;96759.81;;;20.29;100.00
22755;BME280;11544;42.020;23.094;2023-06-14T00:56:21;96769.28;;;20.43;100.00
22755;BME280;11544;42.020;23.094;2023-06-14T00:58:50;96760.63;;;20.08;100.00
22755;BME280;11544;42.020;23.094;2023-06-14T01:01:17;96757.78;;;20.33;100.00
22755;BME280;11544;42.020;23.094;2023-06-14T01:03:44;96764.50;;;20.37;100.00
22755;BME280;11544;42.020;23.094;2023-06-14T01:09:24;96751.84;;;20.40;100.00
22755;BME280;11544;42.020;23.094;2023-06-14T01:15:00;96758.34;;;20.04;100.00
22755;BME280;11544;42.020;23.094;2023-06-14T01:17:28;96758.34;;;20.36;100.00
22755;BME280;11544;42.020;23.094;2023-06-14T01:20:00;96757.00;;;20.42;100.00
22755;BME280;11544;42.020;23.094;2023-06-14T01:22:28;96759.34;;;20.24;100.00
22755;BME280;11544;42.020;23.094;2023-06-14T01:24:55;96756.84;;;20.22;100.00
22755;BME280;11544;42.020;23.094;2023-06-14T01:27:25;96750.31;;;20.26;100.00
22755;BME280;11544;42.020;23.094;2023-06-14T01:29:59;96759.50;;;20.22;100.00
22755;BME280;11544;42.020;23.094;2023-06-14T01:32:32;96756.25;;;20.19;100.00
22755;BME280;11544;42.020;23.094;2023-06-14T01:34:59;96764.06;;;20.20;100.00
22755;BME280;11544;42.020;23.094;2023-06-14T01:37:26;96766.00;;;20.50;100.00
22755;BME280;11544;42.020;23.094;2023-06-14T01:39:54;96764.56;;;21.00;100.00
22755;BME280;11544;42.020;23.094;2023-06-14T01:42:22;96762.19;;;20.97;100.00
22755;BME280;11544;42.020;23.094;2023-06-14T01:44:51;96765.44;;;20.79;100.00
22755;BME280;11544;42.020;23.094;2023-06-14T01:47:19;96767.53;;;20.64;100.00
22755;BME280;11544;42.020;23.094;2023-06-14T01:49:46;96772.81;;;20.64;100.00
22755;BME280;11544;42.020;23.094;2023-06-14T01:52:31;96780.78;;;21.06;100.00
22755;BME280;11544;42.020;23.094;2023-06-14T01:54:57;96779.28;;;20.39;100.00
22755;BME280;11544;42.020;23.094;2023-06-14T01:57:25;96784.13;;;20.66;100.00
22755;BME280;11544;42.020;23.094;2023-06-14T01:59:53;96786.44;;;20.60;100.00
22755;BME280;11544;42.020;23.094;2023-06-14T02:02:20;96792.81;;;20.25;100.00
22755;BME280;11544;42.020;23.094;2023-06-14T02:04:47;96787.75;;;20.22;100.00
22755;BME280;11544;42.020;23.094;2023-06-14T02:07:14;96802.56;;;20.13;100.00
22755;BME280;11544;42.020;23.094;2023-06-14T02:09:41;96789.19;;;20.15;100.00
22755;BME280;11544;42.020;23.094;2023-06-14T02:12:08;96797.59;;;20.31;100.00
22755;BME280;11544;42.020;23.094;2023-06-14T02:14:35;96788.16;;;20.49;100.00
22755;BME280;11544;42.020;23.094;2023-06-14T02:17:02;96791.47;;;20.74;100.00
22755;BME280;11544;42.020;23.094;2023-06-14T02:19:29;96790.78;;;20.49;100.00
22755;BME280;11544;42.020;23.094;2023-06-14T02:21:56;96800.06;;;20.55;100.00
22755;BME280;11544;42.020;23.094;2023-06-14T02:24:23;96802.69;;;20.55;100.00
22755;BME280;11544;42.020;23.094;2023-06-14T02:26:50;96805.47;;;20.54;100.00
22755;BME280;11544;42.020;23.094;2023-06-14T02:29:17;96803.41;;;20.57;100.00
22755;BME280;11544;42.020;23.094;2023-06-14T02:31:44;96810.41;;;20.03;100.00
22755;BME280;11544;42.020;23.094;2023-06-14T02:34:13;96812.25;;;19.80;100.00
22755;BME280;11544;42.020;23.094;2023-06-14T02:36:40;96809.69;;;20.01;100.00
22755;BME280;11544;42.020;23.094;2023-06-14T02:39:09;96816.66;;;19.57;100.00
22755;BME280;11544;42.020;23.094;2023-06-14T02:41:37;96822.97;;;19.32;100.00
22755;BME280;11544;42.020;23.094;2023-06-14T02:44:04;96813.06;;;19.70;100.00
22755;BME280;11544;42.020;23.094;2023-06-14T02:46:31;96814.25;;;19.88;100.00
22755;BME280;11544;42.020;23.094;2023-06-14T02:48:58;96816.63;;;19.46;100.00
22755;BME280;11544;42.020;23.094;2023-06-14T02:51:26;96814.78;;;19.71;100.00
22755;BME280;11544;42.020;23.094;2023-06-14T02:53:53;96808.13;;;19.76;100.00
22755;BME280;11544;42.020;23.094;2023-06-14T02:56:19;96815.81;;;19.91;100.00
22755;BME280;11544;42.020;23.094;2023-06-14T02:58:46;96809.69;;;19.90;100.00
22755;BME280;11544;42.020;23.094;2023-06-14T03:01:16;96812.59;;;19.76;100.00
22755;BME280;11544;42.020;23.094;2023-06-14T03:03:43;96829.00;;;19.45;100.00
22755;BME280;11544;42.020;23.094;2023-06-14T03:06:10;96823.75;;;19.79;100.00
22755;BME280;11544;42.020;23.094;2023-06-14T03:08:40;96822.81;;;19.92;100.00
22755;BME280;11544;42.020;23.094;2023-06-14T03:11:08;96828.03;;;20.37;100.00
22755;BME280;11544;42.020;23.094;2023-06-14T03:13:38;96832.66;;;19.90;100.00
22755;BME280;11544;42.020;23.094;2023-06-14T03:16:05;96834.31;;;20.13;100.00
22755;BME280;11544;42.020;23.094;2023-06-14T03:18:33;96827.75;;;19.74;100.00
22755;BME280;11544;42.020;23.094;2023-06-14T03:21:02;96829.41;;;20.08;100.00
22755;BME280;11544;42.020;23.094;2023-06-14T03:23:30;96826.75;;;20.20;100.00
22755;BME280;11544;42.020;23.094;2023-06-14T03:25:56;96838.53;;;20.27;100.00
22755;BME280;11544;42.020;23.094;2023-06-14T03:28:23;96835.78;;;20.06;100.00
22755;BME280;11544;42.020;23.094;2023-06-14T03:30:50;96829.50;;;20.07;100.00
22755;BME280;11544;42.020;23.094;2023-06-14T03:33:18;96837.19;;;20.10;100.00
22755;BME280;11544;42.020;23.094;2023-06-14T03:35:44;96825.78;;;19.98;100.00
22755;BME280;11544;42.020;23.094;2023-06-14T03:38:12;96832.97;;;20.30;100.00
22755;BME280;11544;42.020;23.094;2023-06-14T03:40:39;96840.44;;;20.25;100.00
22755;BME280;11544;42.020;23.094;2023-06-14T03:43:06;96833.34;;;20.14;100.00
22755;BME280;11544;42.020;23.094;2023-06-14T03:45:33;96832.16;;;20.07;100.00
22755;BME280;11544;42.020;23.094;2023-06-14T03:48:00;96833.72;;;20.21;100.00
22755;BME280;11544;42.020;23.094;2023-06-14T03:50:27;96836.16;;;20.56;100.00
22755;BME280;11544;42.020;23.094;2023-06-14T03:52:55;96830.59;;;20.70;100.00
22755;BME280;11544;42.020;23.094;2023-06-14T03:55:22;96844.19;;;20.55;100.00
22755;BME280;11544;42.020;23.094;2023-06-14T03:57:54;96835.06;;;20.47;100.00
22755;BME280;11544;42.020;23.094;2023-06-14T04:00:21;96844.72;;;21.34;100.00
22755;BME280;11544;42.020;23.094;2023-06-14T04:02:48;96838.19;;;21.17;100.00
22755;BME280;11544;42.020;23.094;2023-06-14T04:05:15;96835.72;;;21.67;100.00
22755;BME280;11544;42.020;23.094;2023-06-14T04:07:43;96826.19;;;22.36;100.00
22755;BME280;11544;42.020;23.094;2023-06-14T04:10:12;96817.28;;;22.47;100.00
22755;BME280;11544;42.020;23.094;2023-06-14T04:12:40;96821.69;;;21.86;100.00
22755;BME280;11544;42.020;23.094;2023-06-14T04:15:13;96828.75;;;21.66;100.00
22755;BME280;11544;42.020;23.094;2023-06-14T04:17:48;96830.31;;;21.48;100.00
22755;BME280;11544;42.020;23.094;2023-06-14T04:20:15;96818.41;;;21.21;100.00
22755;BME280;11544;42.020;23.094;2023-06-14T04:22:43;96824.63;;;21.52;100.00
22755;BME280;11544;42.020;23.094;2023-06-14T04:25:10;96820.84;;;20.92;100.00
22755;BME280;11544;42.020;23.094;2023-06-14T04:27:38;96817.03;;;21.69;100.00
22755;BME280;11544;42.020;23.094;2023-06-14T04:30:06;96817.09;;;21.88;100.00
22755;BME280;11544;42.020;23.094;2023-06-14T04:32:34;96814.44;;;22.29;100.00
22755;BME280;11544;42.020;23.094;2023-06-14T04:35:07;96823.13;;;22.00;100.00
22755;BME280;11544;42.020;23.094;2023-06-14T04:37:34;96813.50;;;22.98;100.00
22755;BME280;11544;42.020;23.094;2023-06-14T04:40:01;96819.34;;;23.40;100.00
22755;BME280;11544;42.020;23.094;2023-06-14T04:42:31;96827.50;;;22.71;100.00
22755;BME280;11544;42.020;23.094;2023-06-14T04:44:58;96830.72;;;23.80;100.00
22755;BME280;11544;42.020;23.094;2023-06-14T04:47:45;96826.06;;;23.44;100.00
22755;BME280;11544;42.020;23.094;2023-06-14T04:50:21;96825.50;;;23.31;100.00
22755;BME280;11544;42.020;23.094;2023-06-14T04:52:48;96821.09;;;23.59;100.00
22755;BME280;11544;42.020;23.094;2023-06-14T04:55:18;96822.41;;;24.20;96.91
22755;BME280;11544;42.020;23.094;2023-06-14T04:57:45;96827.41;;;24.05;98.35
22755;BME280;11544;42.020;23.094;2023-06-14T05:00:12;96836.00;;;22.84;100.00
22755;BME280;11544;42.020;23.094;2023-06-14T05:02:40;96830.94;;;23.96;97.59
22755;BME280;11544;42.020;23.094;2023-06-14T05:05:08;96832.75;;;24.23;98.87
22755;BME280;11544;42.020;23.094;2023-06-14T05:07:35;96829.19;;;24.60;95.92
22755;BME280;11544;42.020;23.094;2023-06-14T05:10:06;96822.06;;;24.79;93.28
22755;BME280;11544;42.020;23.094;2023-06-14T05:12:33;96840.75;;;23.29;99.37
22755;BME280;11544;42.020;23.094;2023-06-14T05:15:00;96837.19;;;23.67;100.00
22755;BME280;11544;42.020;23.094;2023-06-14T05:17:27;96839.75;;;23.97;98.75
22755;BME280;11544;42.020;23.094;2023-06-14T05:19:54;96843.56;;;24.49;94.25
22755;BME280;11544;42.020;23.094;2023-06-14T05:22:22;96843.16;;;25.26;89.80
22755;BME280;11544;42.020;23.094;2023-06-14T05:24:49;96846.41;;;24.84;92.40
22755;BME280;11544;42.020;23.094;2023-06-14T05:27:16;96848.53;;;24.35;89.83
22755;BME280;11544;42.020;23.094;2023-06-14T05:29:43;96846.63;;;24.27;92.50
22755;BME280;11544;42.020;23.094;2023-06-14T05:32:10;96847.47;;;24.27;93.17
22755;BME280;11544;42.020;23.094;2023-06-14T05:34:37;96852.41;;;23.85;98.58
22755;BME280;11544;42.020;23.094;2023-06-14T05:37:04;96853.56;;;23.73;96.37
22755;BME280;11544;42.020;23.094;2023-06-14T05:39:31;96850.78;;;23.74;98.07
22755;BME280;11544;42.020;23.094;2023-06-14T05:41:58;96847.41;;;23.82;95.45
22755;BME280;11544;42.020;23.094;2023-06-14T05:44:25;96853.78;;;23.32;95.16
22755;BME280;11544;42.020;23.094;2023-06-14T05:46:52;96854.97;;;23.57;95.93
22755;BME280;11544;42.020;23.094;2023-06-14T05:49:19;96854.31;;;24.58;92.06
22755;BME280;11544;42.020;23.094;2023-06-14T05:51:45;96861.78;;;24.26;90.25
22755;BME280;11544;42.020;23.094;2023-06-14T05:54:12;96863.22;;;24.48;90.33
22755;BME280;11544;42.020;23.094;2023-06-14T05:56:39;96865.91;;;24.11;93.02
22755;BME280;11544;42.020;23.094;2023-06-14T05:59:06;96856.94;;;24.12;90.49
22755;BME280;11544;42.020;23.094;2023-06-14T06:01:33;96865.16;;;24.74;88.35
22755;BME280;11544;42.020;23.094;2023-06-14T06:04:03;96866.19;;;24.63;83.98
22755;BME280;11544;42.020;23.094;2023-06-14T06:06:30;96860.97;;;25.07;83.06
22755;BME280;11544;42.020;23.094;2023-06-14T06:08:57;96870.88;;;25.85;79.64
22755;BME280;11544;42.020;23.094;2023-06-14T06:11:24;96866.38;;;25.60;78.59
22755;BME280;11544;42.020;23.094;2023-06-14T06:13:53;96873.59;;;24.69;80.83
22755;BME280;11544;42.020;23.094;2023-06-14T06:16:20;96872.63;;;25.24;82.88
22755;BME280;11544;42.020;23.094;2023-06-14T06:18:47;96867.94;;;26.65;75.13
22755;BME280;11544;42.020;23.094;2023-06-14T06:21:14;96868.50;;;27.18;69.21
22755;BME280;11544;42.020;23.094;2023-06-14T06:23:41;96868.59;;;26.59;68.06
22755;BME280;11544;42.020;23.094;2023-06-14T06:26:08;96862.84;;;27.37;65.61
22755;BME280;11544;42.020;23.094;2023-06-14T06:28:35;96874.22;;;27.23;64.34
22755;BME280;11544;42.020;23.094;2023-06-14T06:31:02;96872.34;;;26.40;68.33
22755;BME280;11544;42.020;23.094;2023-06-14T06:33:31;96864.97;;;26.00;72.50
22755;BME280;11544;42.020;23.094;2023-06-14T06:35:57;96866.16;;;25.97;73.67
22755;BME280;11544;42.020;23.094;2023-06-14T06:38:24;96862.31;;;27.17;66.99
22755;BME280;11544;42.020;23.094;2023-06-14T06:40:51;96864.84;;;27.35;65.10
22755;BME280;11544;42.020;23.094;2023-06-14T06:43:20;96867.16;;;24.90;70.50
22755;BME280;11544;42.020;23.094;2023-06-14T06:45:47;96867.69;;;25.55;74.18
22755;BME280;11544;42.020;23.094;2023-06-14T06:48:14;96861.22;;;26.18;71.13
22755;BME280;11544;42.020;23.094;2023-06-14T06:50:42;96859.13;;;26.30;71.19
22755;BME280;11544;42.020;23.094;2023-06-14T06:53:09;96864.84;;;25.75;70.29
22755;BME280;11544;42.020;23.094;2023-06-14T06:55:36;96853.28;;;27.02;67.01
22755;BME280;11544;42.020;23.094;2023-06-14T06:58:03;96848.75;;;26.70;65.87
22755;BME280;11544;42.020;23.094;2023-06-14T07:00:32;96845.88;;;27.78;63.94
22755;BME280;11544;42.020;23.094;2023-06-14T07:02:59;96843.78;;;28.21;61.59
22755;BME280;11544;42.020;23.094;2023-06-14T07:05:25;96843.25;;;27.53;62.69
22755;BME280;11544;42.020;23.094;2023-06-14T07:07:53;96840.94;;;27.42;64.23
22755;BME280;11544;42.020;23.094;2023-06-14T07:10:23;96837.31;;;28.07;59.86
22755;BME280;11544;42.020;23.094;2023-06-14T07:13:01;96841.38;;;27.86;59.66
22755;BME280;11544;42.020;23.094;2023-06-14T07:15:28;96840.75;;;27.02;60.48
22755;BME280;11544;42.020;23.094;2023-06-14T07:17:55;96848.66;;;26.53;61.10
22755;BME280;11544;42.020;23.094;2023-06-14T07:20:26;96848.63;;;26.45;60.81
22755;BME280;11544;42.020;23.094;2023-06-14T07:22:53;96834.47;;;28.00;59.51
22755;BME280;11544;42.020;23.094;2023-06-14T07:25:20;96831.59;;;28.81;58.45
22755;BME280;11544;42.020;23.094;2023-06-14T07:27:46;96836.03;;;26.88;60.87
22755;BME280;11544;42.020;23.094;2023-06-14T07:30:14;96840.91;;;26.34;62.28
22755;BME280;11544;42.020;23.094;2023-06-14T07:32:41;96842.06;;;25.89;65.98
22755;BME280;11544;42.020;23.094;2023-06-14T07:35:09;96840.94;;;25.21;69.03
22755;BME280;11544;42.020;23.094;2023-06-14T07:37:35;96844.34;;;24.78;71.74
22755;BME280;11544;42.020;23.094;2023-06-14T07:40:03;96849.50;;;25.15;69.35
22755;BME280;11544;42.020;23.094;2023-06-14T07:42:34;96842.38;;;26.71;63.30
22755;BME280;11544;42.020;23.094;2023-06-14T07:45:03;96844.47;;;27.26;58.86
22755;BME280;11544;42.020;23.094;2023-06-14T07:47:30;96842.25;;;27.54;57.10
22755;BME280;11544;42.020;23.094;2023-06-14T07:49:57;96849.97;;;26.49;60.53
22755;BME280;11544;42.020;23.094;2023-06-14T07:52:24;96835.59;;;27.34;60.28
22755;BME280;11544;42.020;23.094;2023-06-14T07:54:52;96846.56;;;27.80;58.70
22755;BME280;11544;42.020;23.094;2023-06-14T07:57:18;96847.44;;;28.28;56.84
22755;BME280;11544;42.020;23.094;2023-06-14T07:59:46;96847.28;;;27.49;59.02
22755;BME280;11544;42.020;23.094;2023-06-14T08:02:14;96851.09;;;27.63;59.07
22755;BME280;11544;42.020;23.094;2023-06-14T08:04:41;96845.97;;;27.29;59.09
22755;BME280;11544;42.020;23.094;2023-06-14T08:07:09;96847.41;;;27.72;56.37
22755;BME280;11544;42.020;23.094;2023-06-14T08:09:36;96848.13;;;27.17;56.43
22755;BME280;11544;42.020;23.094;2023-06-14T08:12:05;96849.38;;;26.64;59.91
22755;BME280;11544;42.020;23.094;2023-06-14T08:14:37;96835.19;;;27.86;56.00
22755;BME280;11544;42.020;23.094;2023-06-14T08:17:04;96841.25;;;27.47;56.84
22755;BME280;11544;42.020;23.094;2023-06-14T08:19:31;96842.91;;;26.99;58.56
22755;BME280;11544;42.020;23.094;2023-06-14T08:21:58;96836.72;;;27.64;56.38
22755;BME280;11544;42.020;23.094;2023-06-14T08:24:25;96835.06;;;27.14;57.17
22755;BME280;11544;42.020;23.094;2023-06-14T08:26:53;96836.19;;;27.85;56.14
22755;BME280;11544;42.020;23.094;2023-06-14T08:29:21;96837.53;;;27.89;56.41
22755;BME280;11544;42.020;23.094;2023-06-14T08:31:47;96841.22;;;28.27;55.17
22755;BME280;11544;42.020;23.094;2023-06-14T08:34:14;96832.81;;;28.47;54.00
22755;BME280;11544;42.020;23.094;2023-06-14T08:36:41;96832.88;;;27.83;56.12
22755;BME280;11544;42.020;23.094;2023-06-14T08:39:08;96824.03;;;28.84;54.07
22755;BME280;11544;42.020;23.094;2023-06-14T08:41:35;96829.59;;;28.98;55.33
22755;BME280;11544;42.020;23.094;2023-06-14T08:44:03;96824.50;;;29.34;53.58
22755;BME280;11544;42.020;23.094;2023-06-14T08:46:32;96812.44;;;29.30;50.77
22755;BME280;11544;42.020;23.094;2023-06-14T08:49:02;96815.59;;;29.86;51.71
22755;BME280;11544;42.020;23.094;2023-06-14T08:51:31;96812.69;;;29.88;50.96
22755;BME280;11544;42.020;23.094;2023-06-14T08:54:03;96807.06;;;29.30;50.16
22755;BME280;11544;42.020;23.094;2023-06-14T08:56:31;96806.44;;;28.59;51.78
22755;BME280;11544;42.020;23.094;2023-06-14T08:59:00;96804.38;;;29.15;50.01
22755;BME280;11544;42.020;23.094;2023-06-14T09:01:36;96793.16;;;29.11;47.91
22755;BME280;11544;42.020;23.094;2023-06-14T09:04:04;96790.94;;;29.15;49.29
22755;BME280;11544;42.020;23.094;2023-06-14T09:06:34;96799.69;;;29.32;50.30
22755;BME280;11544;42.020;23.094;2023-06-14T09:09:03;96792.53;;;29.92;49.41
22755;BME280;11544;42.020;23.094;2023-06-14T09:11:31;96785.47;;;29.76;45.55
22755;BME280;11544;42.020;23.094;2023-06-14T09:13:58;96784.47;;;29.92;50.32
22755;BME280;11544;42.020;23.094;2023-06-14T09:16:25;96792.13;;;29.65;49.06
22755;BME280;11544;42.020;23.094;2023-06-14T09:18:53;96781.56;;;30.08;46.29
22755;BME280;11544;42.020;23.094;2023-06-14T09:21:21;96776.13;;;29.72;51.31
22755;BME280;11544;42.020;23.094;2023-06-14T09:23:48;96771.00;;;30.07;49.60
22755;BME280;11544;42.020;23.094;2023-06-14T09:26:16;96764.91;;;29.83;50.20
22755;BME280;11544;42.020;23.094;2023-06-14T09:28:48;96760.16;;;30.30;47.54
22755;BME280;11544;42.020;23.094;2023-06-14T09:31:17;96764.97;;;30.05;48.53
22755;BME280;11544;42.020;23.094;2023-06-14T09:33:45;96771.56;;;30.53;45.76
22755;BME280;11544;42.020;23.094;2023-06-14T09:36:16;96768.50;;;29.61;46.64
22755;BME280;11544;42.020;23.094;2023-06-14T09:38:59;96766.91;;;30.11;44.41
22755;BME280;11544;42.020;23.094;2023-06-14T09:41:34;96771.66;;;30.81;44.98
22755;BME280;11544;42.020;23.094;2023-06-14T09:44:04;96760.84;;;29.72;44.62
22755;BME280;11544;42.020;23.094;2023-06-14T09:46:37;96768.31;;;30.22;44.80
22755;BME280;11544;42.020;23.094;2023-06-14T09:49:05;96766.38;;;30.73;44.22
22755;BME280;11544;42.020;23.094;2023-06-14T09:51:33;96767.91;;;29.88;45.90
22755;BME280;11544;42.020;23.094;2023-06-14T09:54:03;96761.63;;;30.32;46.74
22755;BME280;11544;42.020;23.094;2023-06-14T09:56:37;96761.72;;;30.24;43.04
22755;BME280;11544;42.020;23.094;2023-06-14T09:59:05;96757.97;;;30.40;43.10
22755;BME280;11544;42.020;23.094;2023-06-14T10:01:35;96767.00;;;30.32;43.16
22755;BME280;11544;42.020;23.094;2023-06-14T10:04:04;96744.28;;;30.56;43.10
22755;BME280;11544;42.020;23.094;2023-06-14T10:06:39;96745.97;;;30.79;44.56
22755;BME280;11544;42.020;23.094;2023-06-14T10:09:08;96740.84;;;31.06;42.09
22755;BME280;11544;42.020;23.094;2023-06-14T10:11:36;96742.69;;;31.33;43.55
22755;BME280;11544;42.020;23.094;2023-06-14T10:14:05;96736.63;;;31.25;42.39
22755;BME280;11544;42.020;23.094;2023-06-14T10:16:52;96734.06;;;30.67;44.01
22755;BME280;11544;42.020;23.094;2023-06-14T10:19:30;96734.88;;;31.38;42.35
22755;BME280;11544;42.020;23.094;2023-06-14T10:22:09;96736.34;;;30.27;45.46
22755;BME280;11544;42.020;23.094;2023-06-14T10:24:46;96733.53;;;30.20;45.72
22755;BME280;11544;42.020;23.094;2023-06-14T10:27:15;96734.06;;;30.67;47.82
22755;BME280;11544;42.020;23.094;2023-06-14T10:32:24;96717.94;;;30.67;48.96
22755;BME280;11544;42.020;23.094;2023-06-14T10:35:04;96725.97;;;30.09;50.05
22755;BME280;11544;42.020;23.094;2023-06-14T10:37:33;96719.66;;;28.75;52.75
22755;BME280;11544;42.020;23.094;2023-06-14T10:40:00;96729.25;;;28.92;54.67
22755;BME280;11544;42.020;23.094;2023-06-14T10:42:33;96734.50;;;29.38;54.78
22755;BME280;11544;42.020;23.094;2023-06-14T10:45:00;96731.56;;;29.92;51.70
22755;BME280;11544;42.020;23.094;2023-06-14T10:47:32;96737.47;;;29.43;53.78
22755;BME280;11544;42.020;23.094;2023-06-14T10:52:31;96735.16;;;29.25;55.66
22755;BME280;11544;42.020;23.094;2023-06-14T10:55:00;96735.00;;;29.42;54.19
22755;BME280;11544;42.020;23.094;2023-06-14T11:00:13;96726.28;;;29.40;55.02
22755;BME280;11544;42.020;23.094;2023-06-14T11:11:06;96729.44;;;29.88;52.01
22755;BME280;11544;42.020;23.094;2023-06-14T11:13:36;96726.28;;;29.69;50.51
22755;BME280;11544;42.020;23.094;2023-06-14T11:16:10;96720.03;;;29.09;53.94
22755;BME280;11544;42.020;23.094;2023-06-14T11:18:37;96712.41;;;29.95;51.68
22755;BME280;11544;42.020;23.094;2023-06-14T11:21:04;96706.38;;;29.79;50.49
22755;BME280;11544;42.020;23.094;2023-06-14T11:23:31;96704.47;;;30.09;50.06
22755;BME280;11544;42.020;23.094;2023-06-14T11:25:58;96704.94;;;29.97;50.17
22755;BME280;11544;42.020;23.094;2023-06-14T11:28:35;96704.91;;;29.91;49.33
22755;BME280;11544;42.020;23.094;2023-06-14T11:31:03;96715.47;;;29.78;50.89
22755;BME280;11544;42.020;23.094;2023-06-14T11:33:30;96709.44;;;29.46;48.50
22755;BME280;11544;42.020;23.094;2023-06-14T11:35:57;96709.47;;;29.08;48.44
22755;BME280;11544;42.020;23.094;2023-06-14T11:38:25;96707.94;;;29.28;48.88
22755;BME280;11544;42.020;23.094;2023-06-14T11:40:53;96703.69;;;29.64;48.15
22755;BME280;11544;42.020;23.094;2023-06-14T11:43:19;96693.53;;;30.47;45.64
22755;BME280;11544;42.020;23.094;2023-06-14T11:45:49;96687.00;;;30.56;44.80
22755;BME280;11544;42.020;23.094;2023-06-14T11:48:40;96684.34;;;29.68;46.46
22755;BME280;11544;42.020;23.094;2023-06-14T11:51:08;96675.63;;;29.22;47.30
22755;BME280;11544;42.020;23.094;2023-06-14T11:53:34;96678.81;;;30.86;45.78
22755;BME280;11544;42.020;23.094;2023-06-14T11:56:02;96673.78;;;30.61;43.25
22755;BME280;11544;42.020;23.094;2023-06-14T11:58:29;96671.88;;;30.76;43.99
22755;BME280;11544;42.020;23.094;2023-06-14T12:00:57;96671.16;;;30.89;43.95
22755;BME280;11544;42.020;23.094;2023-06-14T12:03:25;96672.41;;;29.71;46.78
22755;BME280;11544;42.020;23.094;2023-06-14T12:06:07;96675.84;;;29.20;49.95
22755;BME280;11544;42.020;23.094;2023-06-14T12:08:38;96669.53;;;29.72;50.10
22755;BME280;11544;42.020;23.094;2023-06-14T12:11:13;96663.38;;;29.93;48.06
22755;BME280;11544;42.020;23.094;2023-06-14T12:13:43;96675.31;;;29.02;51.52
22755;BME280;11544;42.020;23.094;2023-06-14T12:16:11;96672.06;;;29.29;51.48
22755;BME280;11544;42.020;23.094;2023-06-14T12:18:40;96674.19;;;29.34;48.63
22755;BME280;11544;42.020;23.094;2023-06-14T12:21:08;96684.56;;;28.38;50.24
22755;BME280;11544;42.020;23.094;2023-06-14T12:23:47;96688.22;;;29.21;46.47
22755;BME280;11544;42.020;23.094;2023-06-14T12:26:16;96693.78;;;29.64;45.22
22755;BME280;11544;42.020;23.094;2023-06-14T12:28:44;96682.66;;;29.52;45.75
22755;BME280;11544;42.020;23.094;2023-06-14T12:31:13;96692.66;;;28.76;45.55
22755;BME280;11544;42.020;23.094;2023-06-14T12:33:41;96682.81;;;28.22;48.05
22755;BME280;11544;42.020;23.094;2023-06-14T12:36:09;96683.53;;;29.53;45.58
22755;BME280;11544;42.020;23.094;2023-06-14T12:38:37;96685.19;;;28.86;47.47
22755;BME280;11544;42.020;23.094;2023-06-14T12:41:04;96683.38;;;29.02;46.67
22755;BME280;11544;42.020;23.094;2023-06-14T12:43:31;96673.09;;;27.98;49.41
22755;BME280;11544;42.020;23.094;2023-06-14T12:45:58;96670.88;;;28.33;49.94
22755;BME280;11544;42.020;23.094;2023-06-14T12:48:26;96677.81;;;28.65;48.38
22755;BME280;11544;42.020;23.094;2023-06-14T12:50:58;96677.66;;;28.21;48.84
22755;BME280;11544;42.020;23.094;2023-06-14T12:53:25;96675.38;;;27.78;49.10
22755;BME280;11544;42.020;23.094;2023-06-14T12:55:51;96666.31;;;27.48;48.51
22755;BME280;11544;42.020;23.094;2023-06-14T12:58:18;96668.53;;;27.76;48.87
22755;BME280;11544;42.020;23.094;2023-06-14T13:00:47;96658.94;;;27.50;49.16
22755;BME280;11544;42.020;23.094;2023-06-14T13:03:16;96668.31;;;27.38;49.73
22755;BME280;11544;42.020;23.094;2023-06-14T13:05:43;96664.75;;;27.93;49.59
22755;BME280;11544;42.020;23.094;2023-06-14T13:08:10;96661.22;;;28.24;48.17
22755;BME280;11544;42.020;23.094;2023-06-14T13:10:37;96665.22;;;28.28;47.94
22755;BME280;11544;42.020;23.094;2023-06-14T13:13:04;96661.09;;;28.17;47.27
22755;BME280;11544;42.020;23.094;2023-06-14T13:15:31;96658.13;;;28.58;46.80